Time;durP1;ratioP1;P1;durP2;ratioP2;P2;SDS_P1;SDS_P2;PMS_P1;PMS_P2;Temp;Humidity;BMP_temperature;BMP_pressure;BME280_temperature;BME280_humidity;BME280_pressure;Samples;Min_cycle;Max_cycle;Signal;HPM_P1;HPM_P2
2022/01/03 00:01:39;;;;;;;8.03;3.60;;;10.40;99.90;;;;;;5141405;27;20175;-67
2022/01/03 00:04:08;;;;;;;5.90;3.50;;;10.50;99.90;;;;;;5159786;27;20433;-67
2022/01/03 00:06:36;;;;;;;8.60;3.97;;;10.50;99.90;;;;;;5159100;27;20139;-67
2022/01/03 00:09:03;;;;;;;6.20;3.73;;;10.50;99.90;;;;;;5141468;27;20158;-67
2022/01/03 00:11:30;;;;;;;7.53;3.70;;;10.50;99.90;;;;;;5141242;27;20175;-67
2022/01/03 00:13:57;;;;;;;7.70;3.67;;;10.50;99.90;;;;;;5157722;27;20155;-67
2022/01/03 00:16:27;;;;;;;6.93;3.60;;;10.50;99.90;;;;;;5158705;27;20144;-67
2022/01/03 00:18:54;;;;;;;7.97;3.70;;;10.50;99.90;;;;;;5139468;27;20151;-67
2022/01/03 00:21:26;;;;;;;7.00;3.43;;;10.50;99.90;;;;;;5139148;27;20143;-67
2022/01/03 00:24:05;;;;;;;8.40;3.47;;;10.40;99.90;;;;;;5138735;27;20155;-67
2022/01/03 00:26:35;;;;;;;7.53;3.60;;;10.40;99.90;;;;;;5139270;27;20164;-67
2022/01/03 00:29:25;;;;;;;8.33;4.00;;;10.30;99.90;;;;;;5160354;27;20127;-67
2022/01/03 00:31:54;;;;;;;8.80;3.70;;;10.30;99.90;;;;;;5155980;27;20155;-67
2022/01/03 00:34:23;;;;;;;7.73;3.80;;;10.30;99.90;;;;;;5139230;27;20158;-67
2022/01/03 00:36:52;;;;;;;6.53;3.87;;;10.30;99.90;;;;;;5140899;27;20140;-67
2022/01/03 00:39:18;;;;;;;7.73;3.70;;;10.30;99.90;;;;;;5159080;27;20112;-67
2022/01/03 00:41:48;;;;;;;5.60;3.30;;;10.20;99.90;;;;;;5158500;27;20138;-67
2022/01/03 00:44:15;;;;;;;6.70;3.50;;;10.20;99.90;;;;;;5156169;27;20218;-67
2022/01/03 00:46:43;;;;;;;8.43;3.53;;;10.20;99.90;;;;;;5156986;27;20192;-67
2022/01/03 00:49:10;;;;;;;6.00;3.43;;;10.20;99.90;;;;;;5139454;27;20144;-67
2022/01/03 00:51:37;;;;;;;8.13;3.50;;;10.30;99.90;;;;;;5139181;27;20147;-67
2022/01/03 00:54:04;;;;;;;6.23;3.20;;;10.40;99.90;;;;;;5140116;27;20148;-67
2022/01/03 00:56:37;;;;;;;6.77;3.40;;;10.40;99.90;;;;;;5138720;27;20143;-67
2022/01/03 00:59:11;;;;;;;6.63;3.47;;;10.50;99.90;;;;;;5159950;27;20352;-67
2022/01/03 01:01:46;;;;;;;7.93;3.33;;;10.50;99.90;;;;;;5139992;27;20150;-67
2022/01/03 01:04:15;;;;;;;6.97;3.70;;;10.40;99.90;;;;;;5139482;27;20144;-67
2022/01/03 01:06:42;;;;;;;7.17;3.23;;;10.40;99.90;;;;;;5138535;27;20144;-67
2022/01/03 01:09:12;;;;;;;5.57;3.20;;;10.40;99.90;;;;;;5140859;27;20144;-67
2022/01/03 01:11:43;;;;;;;6.00;3.50;;;10.40;99.90;;;;;;5156326;27;20176;-67
2022/01/03 01:14:11;;;;;;;5.23;2.87;;;10.40;99.90;;;;;;5140216;27;20152;-67
2022/01/03 01:16:39;;;;;;;5.73;2.90;;;10.30;99.90;;;;;;5140372;27;20179;-67
2022/01/03 01:19:08;;;;;;;7.13;3.43;;;10.40;99.90;;;;;;5141380;27;20159;-67
2022/01/03 01:21:35;;;;;;;7.13;3.30;;;10.30;99.90;;;;;;5159668;27;20147;-67
2022/01/03 01:24:03;;;;;;;6.37;2.73;;;10.30;99.90;;;;;;5160040;27;20191;-67
2022/01/03 01:29:16;;;;;;;10.10;3.70;;;10.30;99.90;;;;;;5159849;27;20147;-68
2022/01/03 01:31:51;;;;;;;5.33;3.00;;;10.30;99.90;;;;;;5140609;27;20140;-67
2022/01/03 01:34:22;;;;;;;5.93;3.10;;;10.20;99.90;;;;;;5159076;27;20123;-67
2022/01/03 01:36:55;;;;;;;5.63;2.90;;;10.20;99.90;;;;;;5140697;27;20148;-67
2022/01/03 01:39:25;;;;;;;7.57;3.40;;;10.20;99.90;;;;;;5139806;27;20147;-67
2022/01/03 01:41:56;;;;;;;5.50;3.07;;;10.10;99.90;;;;;;5142533;27;20148;-68
2022/01/03 01:44:24;;;;;;;5.13;2.90;;;10.10;99.90;;;;;;5140451;27;20170;-67
2022/01/03 01:46:54;;;;;;;5.97;3.10;;;10.10;99.90;;;;;;5142410;27;20147;-67
2022/01/03 01:49:24;;;;;;;6.40;3.07;;;10.00;99.90;;;;;;5142309;27;20140;-67
2022/01/03 01:52:00;;;;;;;8.40;2.70;;;9.90;99.90;;;;;;5140472;27;20136;-67
2022/01/03 01:54:34;;;;;;;6.60;3.23;;;9.90;99.90;;;;;;5140368;27;20140;-67
2022/01/03 01:57:07;;;;;;;6.73;3.13;;;9.90;99.90;;;;;;5160518;27;20139;-67
2022/01/03 01:59:39;;;;;;;4.70;2.73;;;9.90;99.90;;;;;;5142018;27;20486;-67
2022/01/03 02:02:09;;;;;;;4.57;2.70;;;9.90;99.90;;;;;;5160463;27;20196;-67
2022/01/03 02:04:48;;;;;;;6.13;2.83;;;9.80;99.90;;;;;;5160159;27;20189;-67
2022/01/03 02:07:40;;;;;;;4.73;3.00;;;9.80;99.90;;;;;;5141992;27;20147;-67
2022/01/03 02:10:08;;;;;;;6.60;3.00;;;9.90;99.90;;;;;;5158067;27;20152;-67
2022/01/03 02:12:41;;;;;;;6.83;3.30;;;9.90;99.90;;;;;;5159784;27;20534;-67
2022/01/03 02:15:13;;;;;;;8.80;3.20;;;9.90;99.90;;;;;;5159021;27;20136;-67
2022/01/03 02:17:44;;;;;;;5.60;2.77;;;9.80;99.90;;;;;;5159484;27;20153;-68
2022/01/03 02:20:23;;;;;;;5.70;3.10;;;9.90;99.90;;;;;;5141055;27;20147;-67
2022/01/03 02:22:51;;;;;;;5.57;2.90;;;9.90;99.90;;;;;;5139571;27;20150;-67
2022/01/03 02:25:20;;;;;;;5.10;3.17;;;9.90;99.90;;;;;;5139523;27;20160;-67
2022/01/03 02:27:50;;;;;;;4.17;2.70;;;9.90;99.90;;;;;;5139244;27;20148;-67
2022/01/03 02:30:22;;;;;;;4.50;2.83;;;9.80;99.90;;;;;;5157023;27;20160;-67
2022/01/03 02:32:49;;;;;;;5.27;2.70;;;9.80;99.90;;;;;;5155662;27;20140;-67
2022/01/03 02:35:17;;;;;;;5.73;3.00;;;9.80;99.90;;;;;;5156898;27;20194;-67
2022/01/03 02:37:46;;;;;;;5.57;2.83;;;9.70;99.90;;;;;;5140793;27;20148;-67
2022/01/03 02:40:13;;;;;;;5.67;2.83;;;9.60;99.90;;;;;;5140885;27;20493;-67
2022/01/03 02:42:42;;;;;;;8.50;2.80;;;9.60;99.90;;;;;;5138742;27;20187;-67
2022/01/03 02:45:10;;;;;;;5.83;2.90;;;9.60;99.90;;;;;;5158463;27;20148;-67
2022/01/03 02:47:41;;;;;;;5.30;3.00;;;9.50;99.90;;;;;;5140308;27;20191;-68
2022/01/03 02:50:09;;;;;;;4.90;2.60;;;9.50;99.90;;;;;;5139796;27;20163;-67
2022/01/03 02:52:37;;;;;;;4.43;2.80;;;9.60;99.90;;;;;;5139967;27;20174;-67
2022/01/03 02:55:06;;;;;;;5.37;2.90;;;9.50;99.90;;;;;;5141037;27;20191;-67
2022/01/03 02:57:39;;;;;;;5.63;2.80;;;9.50;99.90;;;;;;5139076;27;20152;-68
2022/01/03 03:00:10;;;;;;;6.47;2.93;;;9.40;99.90;;;;;;5140199;27;20229;-67
2022/01/03 03:02:37;;;;;;;5.80;2.97;;;9.40;99.90;;;;;;5138692;27;20143;-67
2022/01/03 03:05:07;;;;;;;4.93;3.00;;;9.40;99.90;;;;;;5140858;27;20389;-67
2022/01/03 03:07:35;;;;;;;4.40;2.37;;;9.30;99.90;;;;;;5138284;27;20151;-67
2022/01/03 03:10:09;;;;;;;5.47;2.77;;;9.30;99.90;;;;;;5141302;27;20161;-67
2022/01/03 03:12:36;;;;;;;5.17;2.73;;;9.20;99.90;;;;;;5139581;27;20183;-67
2022/01/03 03:15:06;;;;;;;6.30;2.70;;;9.20;99.90;;;;;;5139004;27;20166;-67
2022/01/03 03:17:33;;;;;;;3.83;2.50;;;9.10;99.90;;;;;;5156556;27;20132;-67
2022/01/03 03:20:02;;;;;;;5.07;2.77;;;9.10;99.90;;;;;;5156748;27;20145;-67
2022/01/03 03:22:30;;;;;;;4.90;2.50;;;9.10;99.90;;;;;;5139010;27;20151;-67
2022/01/03 03:25:05;;;;;;;5.03;2.73;;;9.10;99.90;;;;;;5140356;27;20498;-67
2022/01/03 03:27:34;;;;;;;6.87;3.10;;;9.10;99.90;;;;;;5139965;27;20517;-67
2022/01/03 03:30:23;;;;;;;5.83;3.13;;;9.10;99.90;;;;;;5139201;27;20190;-67
2022/01/03 03:32:54;;;;;;;4.73;2.53;;;9.10;99.90;;;;;;5158493;27;20158;-67
2022/01/03 03:35:21;;;;;;;3.73;2.50;;;9.10;99.90;;;;;;5139733;27;20143;-67
2022/01/03 03:37:49;;;;;;;5.17;2.50;;;9.20;99.90;;;;;;5139336;27;20562;-67
2022/01/03 03:40:16;;;;;;;7.33;3.00;;;9.10;99.90;;;;;;5140272;27;20174;-67
2022/01/03 03:42:44;;;;;;;4.80;2.90;;;9.10;99.90;;;;;;5141062;27;20253;-67
2022/01/03 03:45:11;;;;;;;8.27;3.10;;;9.10;99.90;;;;;;5140029;27;20159;-67
2022/01/03 03:47:39;;;;;;;4.27;2.40;;;9.00;99.90;;;;;;5157760;27;20387;-67
2022/01/03 03:50:06;;;;;;;6.17;2.83;;;8.90;99.90;;;;;;5157188;27;20218;-67
2022/01/03 03:52:33;;;;;;;5.83;2.80;;;8.90;99.90;;;;;;5159287;27;20493;-67
2022/01/03 03:55:00;;;;;;;5.57;2.40;;;8.80;99.90;;;;;;5158450;27;20124;-67
2022/01/03 03:57:27;;;;;;;4.97;2.43;;;8.80;99.90;;;;;;5139506;27;20511;-67
2022/01/03 03:59:54;;;;;;;5.40;2.93;;;8.70;99.90;;;;;;5139646;27;20159;-67
2022/01/03 04:02:21;;;;;;;6.63;2.77;;;8.70;99.90;;;;;;5159802;27;20466;-67
2022/01/03 04:04:49;;;;;;;4.67;2.30;;;8.70;99.90;;;;;;5141246;27;20145;-67
2022/01/03 04:07:16;;;;;;;5.80;2.40;;;8.60;99.90;;;;;;5156891;27;20169;-67
2022/01/03 04:09:42;;;;;;;4.93;2.80;;;8.60;99.90;;;;;;5156726;27;20190;-67
2022/01/03 04:12:09;;;;;;;6.10;2.97;;;8.50;99.90;;;;;;5140441;27;20154;-67
2022/01/03 04:14:36;;;;;;;7.57;3.10;;;8.50;99.90;;;;;;5139404;27;20236;-66
2022/01/03 04:17:03;;;;;;;6.53;3.33;;;8.50;99.90;;;;;;5141493;27;20177;-67
2022/01/03 04:19:30;;;;;;;7.93;3.20;;;8.50;99.90;;;;;;5159007;27;20133;-67
2022/01/03 04:21:57;;;;;;;5.63;3.30;;;8.50;99.90;;;;;;5159252;27;20122;-67
2022/01/03 04:24:24;;;;;;;5.83;3.27;;;8.50;99.90;;;;;;5158403;27;20182;-67
2022/01/03 04:26:51;;;;;;;5.87;3.40;;;8.40;99.90;;;;;;5139243;27;20138;-67
2022/01/03 04:29:18;;;;;;;6.37;3.40;;;8.50;99.90;;;;;;5158356;27;20175;-67
2022/01/03 04:31:44;;;;;;;8.10;3.60;;;8.50;99.90;;;;;;5139543;27;20153;-67
2022/01/03 04:34:13;;;;;;;6.83;3.33;;;8.40;99.90;;;;;;5139135;27;20162;-67
2022/01/03 04:36:41;;;;;;;7.63;3.60;;;8.40;99.90;;;;;;5158181;27;20186;-67
2022/01/03 04:39:08;;;;;;;6.47;3.50;;;8.40;99.90;;;;;;5139731;27;20140;-67
2022/01/03 04:41:35;;;;;;;6.77;3.67;;;8.40;99.90;;;;;;5138775;27;20155;-67
2022/01/03 04:44:05;;;;;;;6.43;3.40;;;8.40;99.90;;;;;;5157418;27;20131;-67
2022/01/03 04:46:36;;;;;;;7.50;3.90;;;8.40;99.90;;;;;;5139213;27;20180;-67
2022/01/03 04:49:06;;;;;;;6.80;3.70;;;8.40;99.90;;;;;;5139555;27;20418;-67
2022/01/03 04:51:33;;;;;;;7.40;3.50;;;8.40;99.90;;;;;;5138931;27;20151;-67
2022/01/03 04:54:00;;;;;;;7.47;3.73;;;8.50;99.90;;;;;;5156569;27;20181;-67
2022/01/03 04:56:27;;;;;;;6.10;3.30;;;8.50;99.90;;;;;;5157577;27;20180;-67
2022/01/03 04:58:55;;;;;;;7.70;3.60;;;8.40;99.90;;;;;;5157049;27;20165;-67
2022/01/03 05:01:23;;;;;;;5.93;3.90;;;8.40;99.90;;;;;;5157953;27;20122;-67
2022/01/03 05:03:51;;;;;;;8.13;3.90;;;8.40;99.90;;;;;;5138739;27;20226;-67
2022/01/03 05:06:19;;;;;;;7.50;3.80;;;8.40;99.90;;;;;;5156424;27;20192;-67
2022/01/03 05:08:46;;;;;;;7.33;3.87;;;8.40;99.90;;;;;;5156452;27;20154;-67
2022/01/03 05:11:14;;;;;;;7.27;4.10;;;8.40;99.90;;;;;;5140042;27;20162;-66
2022/01/03 05:13:41;;;;;;;9.47;3.93;;;8.40;99.90;;;;;;5138565;27;20173;-66
2022/01/03 05:16:09;;;;;;;9.03;4.30;;;8.40;99.90;;;;;;5139724;27;20153;-67
2022/01/03 05:18:36;;;;;;;6.40;4.13;;;8.40;99.90;;;;;;5139903;27;20219;-67
2022/01/03 05:21:03;;;;;;;8.53;4.17;;;8.30;99.90;;;;;;5157751;27;20135;-67
2022/01/03 05:23:30;;;;;;;7.57;4.40;;;8.40;99.90;;;;;;5138962;27;20184;-67
2022/01/03 05:25:57;;;;;;;8.13;3.93;;;8.30;99.90;;;;;;5138781;27;20559;-67
2022/01/03 05:28:24;;;;;;;7.50;4.33;;;8.30;99.90;;;;;;5157209;27;20154;-67
2022/01/03 05:30:52;;;;;;;7.27;4.30;;;8.30;99.90;;;;;;5160052;27;20123;-67
2022/01/03 05:33:19;;;;;;;8.30;4.37;;;8.20;99.90;;;;;;5158458;27;20175;-67
2022/01/03 05:35:46;;;;;;;9.03;4.10;;;8.20;99.90;;;;;;5139936;27;20146;-67
2022/01/03 05:38:13;;;;;;;8.90;4.60;;;8.20;99.90;;;;;;5139224;27;20175;-67
2022/01/03 05:40:40;;;;;;;8.40;4.63;;;8.10;99.90;;;;;;5159523;27;20141;-67
2022/01/03 05:43:07;;;;;;;8.73;4.50;;;8.20;99.90;;;;;;5139676;27;20213;-67
2022/01/03 05:45:34;;;;;;;7.70;4.60;;;8.10;99.90;;;;;;5139220;27;20183;-67
2022/01/03 05:48:01;;;;;;;9.73;4.73;;;8.10;99.90;;;;;;5158301;27;20169;-67
2022/01/03 05:50:28;;;;;;;7.53;4.57;;;8.10;99.90;;;;;;5158222;27;20154;-67
2022/01/03 05:52:55;;;;;;;7.90;4.83;;;8.10;99.90;;;;;;5157980;27;20172;-67
2022/01/03 05:55:24;;;;;;;8.23;4.70;;;8.10;99.90;;;;;;5139266;27;20157;-67
2022/01/03 05:57:51;;;;;;;7.37;4.60;;;8.10;99.90;;;;;;5156497;27;20158;-67
2022/01/03 06:00:20;;;;;;;7.87;4.33;;;8.00;99.90;;;;;;5158156;27;20147;-66
2022/01/03 06:02:46;;;;;;;8.20;4.67;;;8.00;99.90;;;;;;5140354;27;20198;-67
2022/01/03 06:05:42;;;;;;;8.67;4.23;;;8.00;99.90;;;;;;5157136;27;20153;-67
2022/01/03 06:08:09;;;;;;;6.83;4.40;;;8.00;99.90;;;;;;5142517;27;20261;-67
2022/01/03 06:10:40;;;;;;;11.40;5.17;;;7.90;99.90;;;;;;5158010;27;20152;-67
2022/01/03 06:13:07;;;;;;;6.57;4.60;;;7.90;99.90;;;;;;5140305;27;20191;-67
2022/01/03 06:15:38;;;;;;;8.80;4.77;;;7.90;99.90;;;;;;5140830;27;20183;-67
2022/01/03 06:18:10;;;;;;;9.07;4.60;;;7.80;99.90;;;;;;5140550;27;20146;-67
2022/01/03 06:20:44;;;;;;;8.97;4.90;;;7.90;99.90;;;;;;5140079;27;20148;-67
2022/01/03 06:23:13;;;;;;;8.77;4.93;;;7.80;99.90;;;;;;5140274;27;20145;-67
2022/01/03 06:25:40;;;;;;;9.60;4.70;;;7.80;99.90;;;;;;5140844;27;20203;-67
2022/01/03 06:28:08;;;;;;;8.47;4.70;;;7.80;99.90;;;;;;5140439;27;20220;-67
2022/01/03 06:30:37;;;;;;;9.13;4.37;;;7.80;99.90;;;;;;5159906;27;20163;-67
2022/01/03 06:33:05;;;;;;;10.03;4.90;;;7.80;99.90;;;;;;5140938;27;20147;-66
2022/01/03 06:35:33;;;;;;;7.73;4.20;;;7.80;99.90;;;;;;5159355;27;20138;-67
2022/01/03 06:38:01;;;;;;;8.80;4.40;;;7.80;99.90;;;;;;5159505;27;20152;-67
2022/01/03 06:40:28;;;;;;;13.23;4.80;;;7.80;99.90;;;;;;5157087;27;20158;-67
2022/01/03 06:42:55;;;;;;;8.37;4.67;;;7.80;99.90;;;;;;5139331;27;20376;-67
2022/01/03 06:45:22;;;;;;;8.93;4.90;;;7.70;99.90;;;;;;5141547;27;20209;-67
2022/01/03 06:47:54;;;;;;;10.67;4.57;;;7.80;99.90;;;;;;5158715;27;20146;-67
2022/01/03 06:50:21;;;;;;;9.03;4.20;;;7.80;99.90;;;;;;5157296;27;20154;-67
2022/01/03 06:52:48;;;;;;;8.67;4.50;;;7.80;99.90;;;;;;5157694;27;20145;-67
2022/01/03 06:55:15;;;;;;;9.30;5.00;;;7.80;99.90;;;;;;5158953;27;20174;-67
2022/01/03 06:57:42;;;;;;;7.90;4.63;;;7.80;99.90;;;;;;5140639;27;20158;-67
2022/01/03 07:00:10;;;;;;;8.60;4.47;;;7.80;99.90;;;;;;5157990;27;20125;-67
2022/01/03 07:02:42;;;;;;;8.37;4.60;;;7.90;99.90;;;;;;5158323;27;20197;-67
2022/01/03 07:05:13;;;;;;;7.80;4.77;;;7.90;99.90;;;;;;5140948;27;20149;-67
2022/01/03 07:07:41;;;;;;;7.90;4.90;;;7.90;99.90;;;;;;5158672;27;20347;-67
2022/01/03 07:10:11;;;;;;;7.33;4.33;;;7.90;99.90;;;;;;5139884;27;20409;-67
2022/01/03 07:12:39;;;;;;;8.63;4.77;;;7.90;99.90;;;;;;5156772;27;20206;-67
2022/01/03 07:20:39;;;;;;;9.23;5.13;;;7.90;99.90;;;;;;5157967;27;20482;-66
2022/01/03 07:23:06;;;;;;;9.73;4.73;;;7.90;99.90;;;;;;5141312;27;20158;-67
2022/01/03 07:25:33;;;;;;;11.07;5.53;;;7.90;99.90;;;;;;5157896;27;20162;-66
2022/01/03 07:28:00;;;;;;;7.40;4.40;;;7.90;99.90;;;;;;5158789;27;20120;-67
2022/01/03 07:30:27;;;;;;;10.23;4.90;;;7.90;99.90;;;;;;5156460;27;20145;-67
2022/01/03 07:32:54;;;;;;;9.40;4.93;;;8.00;99.90;;;;;;5138753;27;20477;-67
2022/01/03 07:35:21;;;;;;;9.13;4.80;;;8.00;99.90;;;;;;5139271;27;20145;-67
2022/01/03 07:37:48;;;;;;;11.43;5.30;;;8.00;99.90;;;;;;5139902;27;20151;-67
2022/01/03 07:40:15;;;;;;;10.70;4.73;;;8.10;99.90;;;;;;5139386;27;20164;-67
2022/01/03 07:42:43;;;;;;;8.23;4.97;;;8.10;99.90;;;;;;5139309;27;20163;-67
2022/01/03 07:45:10;;;;;;;9.33;5.23;;;8.10;99.90;;;;;;5158513;27;20168;-67
2022/01/03 07:47:38;;;;;;;9.50;5.10;;;8.10;99.90;;;;;;5158529;27;20253;-67
2022/01/03 07:50:07;;;;;;;9.93;5.27;;;8.20;99.90;;;;;;5141085;27;20160;-67
2022/01/03 07:52:34;;;;;;;9.37;4.83;;;8.20;99.90;;;;;;5139474;27;20156;-67
2022/01/03 07:55:01;;;;;;;7.07;4.77;;;8.20;99.90;;;;;;5139133;27;20153;-67
2022/01/03 07:57:28;;;;;;;9.17;5.00;;;8.20;99.90;;;;;;5141298;27;20516;-67
2022/01/03 07:59:55;;;;;;;10.00;4.77;;;8.30;99.90;;;;;;5141799;27;20185;-67
2022/01/03 08:02:22;;;;;;;9.77;4.80;;;8.30;99.90;;;;;;5158309;27;20122;-67
2022/01/03 08:04:50;;;;;;;10.07;4.50;;;8.30;99.90;;;;;;5160381;27;20136;-67
2022/01/03 08:07:17;;;;;;;7.27;4.90;;;8.40;99.90;;;;;;5138900;27;20166;-67
2022/01/03 08:09:44;;;;;;;8.83;4.70;;;8.50;99.90;;;;;;5141706;27;20150;-67
2022/01/03 08:12:11;;;;;;;8.97;5.00;;;8.50;99.90;;;;;;5156123;27;20157;-67
2022/01/03 08:14:38;;;;;;;9.50;4.70;;;8.60;99.90;;;;;;5138802;27;20228;-67
2022/01/03 08:17:05;;;;;;;7.67;4.80;;;8.60;99.90;;;;;;5139966;27;20146;-67
2022/01/03 08:19:32;;;;;;;9.17;4.83;;;8.60;99.90;;;;;;5157138;27;20158;-67
2022/01/03 08:21:59;;;;;;;7.77;4.57;;;8.60;99.90;;;;;;5156056;27;20147;-67
2022/01/03 08:24:26;;;;;;;7.73;4.73;;;8.70;99.90;;;;;;5157714;27;20149;-67
2022/01/03 08:26:54;;;;;;;10.50;4.77;;;8.70;99.90;;;;;;5158360;27;20152;-67
2022/01/03 08:29:21;;;;;;;8.90;4.77;;;8.70;99.90;;;;;;5139769;27;20521;-67
2022/01/03 08:31:48;;;;;;;8.97;4.50;;;8.80;99.90;;;;;;5157398;27;20189;-67
2022/01/03 08:34:16;;;;;;;8.53;4.73;;;8.80;99.90;;;;;;5159058;27;20163;-67
2022/01/03 08:36:43;;;;;;;8.43;4.73;;;8.80;99.90;;;;;;5158598;27;20120;-67
2022/01/03 08:39:10;;;;;;;9.57;4.63;;;8.80;99.90;;;;;;5157924;27;20144;-67
2022/01/03 08:41:37;;;;;;;9.37;4.53;;;8.80;99.90;;;;;;5156395;27;20392;-67
2022/01/03 08:44:05;;;;;;;7.63;4.30;;;8.90;99.90;;;;;;5138598;27;20160;-67
2022/01/03 08:46:32;;;;;;;10.27;5.00;;;8.90;99.90;;;;;;5140069;27;20165;-67
2022/01/03 08:48:59;;;;;;;8.57;4.60;;;8.90;99.90;;;;;;5140963;27;20140;-67
2022/01/03 08:51:26;;;;;;;8.20;4.70;;;8.90;99.90;;;;;;5139475;27;20391;-67
2022/01/03 08:53:53;;;;;;;9.67;4.67;;;8.90;99.90;;;;;;5138331;27;20152;-67
2022/01/03 08:56:21;;;;;;;8.27;4.60;;;9.00;99.90;;;;;;5158315;27;20148;-67
2022/01/03 08:58:48;;;;;;;9.57;4.37;;;8.90;99.90;;;;;;5156142;27;20216;-67
2022/01/03 09:01:15;;;;;;;8.97;4.67;;;8.90;99.90;;;;;;5160522;27;20402;-67
2022/01/03 09:03:42;;;;;;;7.20;4.70;;;8.90;99.90;;;;;;5157583;27;20158;-67
2022/01/03 09:06:10;;;;;;;7.60;4.80;;;8.90;99.90;;;;;;5138832;27;20158;-67
2022/01/03 09:08:37;;;;;;;8.30;4.80;;;8.90;99.90;;;;;;5138856;27;20163;-67
2022/01/03 09:11:04;;;;;;;8.20;4.93;;;8.90;99.90;;;;;;5139048;27;20148;-66
2022/01/03 09:13:31;;;;;;;7.97;4.70;;;8.90;99.90;;;;;;5157748;27;20156;-67
2022/01/03 09:16:04;;;;;;;6.93;4.37;;;8.90;99.90;;;;;;5158650;27;20147;-67
2022/01/03 09:18:31;;;;;;;7.80;4.57;;;8.80;99.90;;;;;;5157740;27;20353;-67
2022/01/03 09:20:58;;;;;;;8.43;4.60;;;8.80;99.90;;;;;;5139827;27;20171;-66
2022/01/03 09:23:30;;;;;;;8.17;4.30;;;8.80;99.90;;;;;;5158113;27;20441;-67
2022/01/03 09:28:56;;;;;;;9.43;4.17;;;8.60;99.90;;;;;;5139334;27;20156;-67
2022/01/03 09:31:36;;;;;;;6.17;3.87;;;8.50;99.90;;;;;;5139124;27;20162;-67
2022/01/03 09:34:06;;;;;;;7.27;3.97;;;8.40;99.90;;;;;;5160656;27;20121;-67
2022/01/03 09:36:34;;;;;;;6.13;3.97;;;8.40;99.90;;;;;;5141059;27;20157;-67
2022/01/03 09:39:03;;;;;;;6.80;3.40;;;8.30;99.90;;;;;;5161689;27;20118;-66
2022/01/03 09:41:32;;;;;;;5.60;3.60;;;8.30;99.90;;;;;;5140350;27;20145;-67
2022/01/03 09:44:05;;;;;;;6.80;3.90;;;8.20;99.90;;;;;;5159006;27;20168;-67
2022/01/03 09:46:37;;;;;;;6.67;3.93;;;8.10;99.90;;;;;;5159300;27;20151;-67
2022/01/03 09:49:08;;;;;;;5.70;3.43;;;8.00;99.90;;;;;;5140540;27;20372;-66
2022/01/03 09:51:37;;;;;;;4.97;3.20;;;8.00;99.90;;;;;;5140157;27;20161;-66
2022/01/03 09:54:07;;;;;;;5.47;3.50;;;7.90;99.90;;;;;;5157890;27;20391;-66
2022/01/03 09:56:36;;;;;;;4.03;3.20;;;7.80;99.90;;;;;;5140097;27;20146;-66
2022/01/03 09:59:05;;;;;;;4.37;2.90;;;7.70;99.90;;;;;;5139705;27;20142;-66
2022/01/03 10:01:33;;;;;;;4.50;3.27;;;7.60;99.90;;;;;;5140596;27;20155;-66
2022/01/03 10:04:02;;;;;;;4.73;3.17;;;7.60;99.90;;;;;;5158663;27;20321;-66
2022/01/03 10:06:30;;;;;;;3.83;2.70;;;7.50;99.90;;;;;;5142716;27;20451;-66
2022/01/03 10:08:59;;;;;;;4.60;3.20;;;7.50;99.90;;;;;;5159254;27;20145;-66
2022/01/03 10:11:26;;;;;;;5.00;2.97;;;7.40;99.90;;;;;;5159494;27;20120;-66
2022/01/03 10:13:53;;;;;;;5.13;2.73;;;7.40;99.90;;;;;;5157614;27;20166;-66
2022/01/03 10:16:20;;;;;;;4.70;2.80;;;7.30;99.90;;;;;;5139755;27;20152;-66
2022/01/03 10:19:07;;;;;;;4.30;2.30;;;7.30;99.90;;;;;;5159686;27;20415;-66
2022/01/03 10:21:46;;;;;;;3.27;2.70;;;7.20;99.90;;;;;;5139895;27;20147;-66
2022/01/03 10:24:16;;;;;;;5.27;3.23;;;7.20;99.90;;;;;;5139470;27;20503;-66
2022/01/03 10:26:52;;;;;;;4.23;2.80;;;7.20;99.90;;;;;;5158106;27;20184;-66
2022/01/03 10:29:26;;;;;;;3.70;2.70;;;7.10;99.90;;;;;;5141940;27;20544;-66
2022/01/03 10:32:00;;;;;;;5.27;2.90;;;7.10;99.90;;;;;;5156805;27;20145;-66
2022/01/03 10:34:27;;;;;;;5.50;3.00;;;7.10;99.90;;;;;;5139570;27;20154;-66
2022/01/03 10:36:56;;;;;;;4.43;2.80;;;7.10;99.90;;;;;;5140551;27;20138;-66
2022/01/03 10:39:26;;;;;;;6.10;2.97;;;7.10;99.90;;;;;;5139498;27;20139;-66
2022/01/03 10:42:13;;;;;;;3.27;2.40;;;7.10;99.90;;;;;;5139818;27;20149;-66
2022/01/03 10:44:41;;;;;;;4.03;2.63;;;7.10;99.90;;;;;;5139296;27;20172;-66
2022/01/03 10:47:18;;;;;;;4.33;2.43;;;7.00;99.90;;;;;;5140850;27;20210;-66
2022/01/03 10:49:46;;;;;;;3.57;2.27;;;7.00;99.90;;;;;;5139975;27;20166;-65
2022/01/03 10:52:27;;;;;;;3.40;1.97;;;7.00;99.90;;;;;;5157248;27;20174;-65
2022/01/03 10:55:15;;;;;;;3.33;2.13;;;6.90;99.90;;;;;;5158963;27;20383;-66
2022/01/03 10:58:06;;;;;;;3.33;1.97;;;6.80;99.90;;;;;;5160623;27;20154;-65
2022/01/03 11:00:40;;;;;;;2.37;1.60;;;6.80;99.90;;;;;;5140491;27;20155;-65
2022/01/03 11:03:32;;;;;;;2.90;1.73;;;6.80;99.90;;;;;;5157114;27;20163;-65
2022/01/03 11:06:12;;;;;;;2.47;1.60;;;6.80;99.90;;;;;;5140568;27;20153;-65
2022/01/03 11:11:40;;;;;;;3.10;1.70;;;6.80;99.90;;;;;;5160516;27;20145;-66
2022/01/03 11:14:41;;;;;;;3.20;2.10;;;6.80;99.90;;;;;;5139529;27;20152;-66
2022/01/03 11:17:29;;;;;;;5.60;1.70;;;6.80;99.90;;;;;;5156490;27;20431;-66
2022/01/03 11:19:59;;;;;;;2.70;1.70;;;6.80;99.90;;;;;;5140872;27;20149;-66
2022/01/03 11:22:42;;;;;;;3.00;2.00;;;6.80;99.90;;;;;;5156485;27;20149;-65
2022/01/03 11:25:10;;;;;;;4.70;2.20;;;6.90;99.90;;;;;;5141484;27;20190;-66
2022/01/03 11:27:40;;;;;;;4.27;2.10;;;6.80;99.90;;;;;;5158857;27;20145;-65
2022/01/03 11:30:11;;;;;;;3.23;2.00;;;6.90;99.90;;;;;;5139977;27;20140;-65
2022/01/03 11:32:43;;;;;;;4.23;2.33;;;6.90;99.90;;;;;;5139883;27;20153;-66
2022/01/03 11:35:11;;;;;;;3.53;2.37;;;6.90;99.90;;;;;;5139852;27;20200;-66
2022/01/03 11:37:43;;;;;;;5.87;2.60;;;6.90;99.90;;;;;;5156912;27;20402;-65
2022/01/03 11:40:14;;;;;;;6.10;2.67;;;6.90;99.90;;;;;;5156688;27;20405;-66
2022/01/03 11:42:43;;;;;;;3.93;2.73;;;7.00;99.90;;;;;;5139055;27;20133;-66
2022/01/03 11:45:11;;;;;;;7.57;3.23;;;7.00;99.90;;;;;;5139844;27;20157;-66
2022/01/03 11:47:38;;;;;;;6.27;3.33;;;7.00;99.90;;;;;;5159557;27;20401;-65
2022/01/03 11:50:08;;;;;;;6.70;3.70;;;7.10;99.90;;;;;;5158567;27;20152;-66
2022/01/03 11:52:41;;;;;;;4.97;3.50;;;7.00;99.90;;;;;;5156469;27;20147;-66
2022/01/03 11:55:14;;;;;;;5.37;3.80;;;7.10;99.90;;;;;;5138509;27;20390;-65
2022/01/03 12:03:50;;;;;;;7.87;5.00;;;7.10;99.90;;;;;;5139800;27;20388;-65
2022/01/03 12:06:29;;;;;;;9.47;4.60;;;7.10;99.90;;;;;;5157413;27;20186;-66
2022/01/03 12:09:01;;;;;;;7.77;4.80;;;7.10;99.90;;;;;;5139169;27;20153;-65
2022/01/03 12:11:29;;;;;;;8.97;5.43;;;7.10;99.90;;;;;;5158686;27;20153;-66
2022/01/03 12:14:03;;;;;;;8.70;5.23;;;7.10;99.90;;;;;;5155912;27;20174;-66
2022/01/03 12:16:53;;;;;;;11.80;5.77;;;7.10;99.90;;;;;;5139056;27;20184;-66
2022/01/03 12:19:33;;;;;;;9.03;5.97;;;7.10;99.90;;;;;;5139660;27;20153;-66
2022/01/03 12:22:06;;;;;;;10.10;5.93;;;7.20;99.90;;;;;;5158280;27;20118;-66
2022/01/03 12:24:36;;;;;;;10.30;6.13;;;7.20;99.90;;;;;;5160380;27;20113;-66
2022/01/03 12:27:12;;;;;;;12.27;6.40;;;7.30;99.90;;;;;;5138896;27;20165;-66
2022/01/03 12:29:55;;;;;;;12.20;6.70;;;7.30;99.90;;;;;;5141226;27;20167;-65
2022/01/03 12:32:25;;;;;;;12.20;7.70;;;7.30;99.90;;;;;;5139503;27;20137;-65
2022/01/03 12:35:17;;;;;;;11.10;6.93;;;7.30;99.90;;;;;;5141138;27;20486;-66
2022/01/03 12:37:47;;;;;;;13.07;7.63;;;7.30;99.90;;;;;;5159486;27;20143;-66
2022/01/03 12:40:18;;;;;;;13.10;7.90;;;7.40;99.90;;;;;;5155851;27;20538;-66
2022/01/03 12:45:16;;;;;;;10.13;7.13;;;7.40;99.90;;;;;;5140517;27;20169;-65
2022/01/03 12:47:44;;;;;;;12.80;8.00;;;7.40;99.90;;;;;;5157939;27;20156;-66
2022/01/03 12:50:29;;;;;;;12.27;7.87;;;7.40;99.90;;;;;;5158308;27;20118;-66
2022/01/03 12:52:59;;;;;;;11.40;7.23;;;7.30;99.90;;;;;;5157907;27;20219;-65
2022/01/03 12:55:38;;;;;;;12.40;7.23;;;7.30;99.90;;;;;;5139924;27;20383;-66
2022/01/03 12:58:14;;;;;;;13.27;7.63;;;7.30;99.90;;;;;;5138813;27;20145;-66
2022/01/03 13:00:47;;;;;;;13.97;7.87;;;7.30;99.90;;;;;;5140898;27;20500;-66
2022/01/03 13:03:24;;;;;;;11.57;7.63;;;7.30;99.90;;;;;;5138533;27;20495;-66
2022/01/03 13:06:14;;;;;;;12.90;7.70;;;7.30;99.90;;;;;;5141180;27;20142;-66
2022/01/03 13:08:48;;;;;;;13.73;8.60;;;7.30;99.90;;;;;;5159341;27;20130;-66
2022/01/03 13:11:21;;;;;;;13.30;8.17;;;7.30;99.90;;;;;;5161833;27;20431;-66
2022/01/03 13:13:53;;;;;;;12.77;7.90;;;7.30;99.90;;;;;;5142218;27;20521;-66
2022/01/03 13:16:21;;;;;;;13.93;8.13;;;7.30;99.90;;;;;;5159856;27;20154;-66
2022/01/03 13:18:56;;;;;;;13.70;8.30;;;7.20;99.90;;;;;;5140120;27;20147;-66
2022/01/03 13:21:27;;;;;;;15.17;8.80;;;7.20;99.90;;;;;;5142529;27;20149;-66
2022/01/03 13:23:56;;;;;;;15.10;8.70;;;7.30;99.90;;;;;;5157210;27;20491;-66
2022/01/03 13:26:25;;;;;;;14.50;8.70;;;7.30;99.90;;;;;;5141173;27;20214;-65
2022/01/03 13:28:54;;;;;;;13.67;8.50;;;7.30;99.90;;;;;;5142111;27;20156;-65
2022/01/03 13:31:22;;;;;;;14.20;8.50;;;7.30;99.90;;;;;;5142099;27;20150;-65
2022/01/03 13:34:00;;;;;;;14.53;8.13;;;7.30;99.90;;;;;;5139829;27;20172;-65